Time;durP1;ratioP1;P1;durP2;ratioP2;P2;SDS_P1;SDS_P2;PMS_P1;PMS_P2;Temp;Humidity;BMP_temperature;BMP_pressure;BME280_temperature;BME280_humidity;BME280_pressure;Samples;Min_cycle;Max_cycle;Signal;HPM_P1;HPM_P2
2023/04/27 00:00:27;;;;;;;3.92;1.10;;;;;;;11.20;100.00;100133.22;5133399;27;20058;-71
2023/04/27 00:02:52;;;;;;;1.40;1.08;;;;;;;11.10;100.00;100161.50;5132765;27;20034;-71
2023/04/27 00:05:18;;;;;;;1.70;1.10;;;;;;;10.89;100.00;100101.03;5132320;27;20107;-70
2023/04/27 00:07:43;;;;;;;1.60;1.00;;;;;;;11.01;100.00;100171.94;5114501;27;20398;-71
2023/04/27 00:10:09;;;;;;;2.78;1.13;;;;;;;10.90;100.00;100130.66;5132580;27;20070;-70
2023/04/27 00:12:34;;;;;;;2.33;1.23;;;;;;;11.00;100.00;100170.25;5113809;27;20031;-70
2023/04/27 00:15:00;;;;;;;1.48;1.13;;;;;;;10.68;100.00;100127.03;5113864;27;20035;-70
2023/04/27 00:17:25;;;;;;;1.63;1.00;;;;;;;10.51;100.00;100124.09;5114478;27;20088;-70
2023/04/27 00:19:51;;;;;;;2.83;1.00;;;;;;;10.25;100.00;100090.00;5132610;27;20027;-70
2023/04/27 00:22:17;;;;;;;1.10;0.90;;;;;;;10.65;100.00;100208.47;5114241;27;20146;-72
2023/04/27 00:24:42;;;;;;;2.28;0.95;;;;;;;10.87;100.00;100224.88;5132845;27;20041;-70
2023/04/27 00:27:07;;;;;;;1.80;1.10;;;;;;;10.73;100.00;100214.19;5132235;27;20043;-71
2023/04/27 00:29:33;;;;;;;1.85;0.90;;;;;;;10.84;100.00;100218.16;5114243;27;20027;-70
2023/04/27 00:31:58;;;;;;;1.65;0.80;;;;;;;10.86;100.00;100228.28;5132327;27;20038;-71
2023/04/27 00:34:24;;;;;;;0.73;0.68;;;;;;;10.59;100.00;100208.63;5132397;27;20031;-70
2023/04/27 00:36:49;;;;;;;1.05;0.85;;;;;;;10.23;100.00;100170.50;5113352;27;20154;-70
2023/04/27 00:39:15;;;;;;;2.47;1.00;;;;;;;10.88;100.00;100246.88;5114193;27;20069;-70
2023/04/27 00:41:41;;;;;;;1.23;0.90;;;;;;;10.31;100.00;100180.50;5132401;27;20019;-70
2023/04/27 00:44:08;;;;;;;1.70;1.13;;;;;;;10.32;100.00;100231.25;5131860;27;20394;-70
2023/04/27 00:46:33;;;;;;;1.15;1.00;;;;;;;10.32;100.00;100240.59;5113346;27;20023;-71
2023/04/27 00:49:00;;;;;;;1.35;1.10;;;;;;;10.22;100.00;100236.63;5132109;27;20034;-70
2023/04/27 00:51:28;;;;;;;1.30;0.90;;;;;;;10.29;100.00;100251.69;5113891;27;20027;-71
2023/04/27 00:53:56;;;;;;;1.60;1.05;;;;;;;10.34;100.00;100252.41;5113919;27;20083;-70
2023/04/27 00:56:22;;;;;;;1.77;1.10;;;;;;;10.28;100.00;100244.91;5113608;28;20031;-70
2023/04/27 00:58:48;;;;;;;1.48;1.10;;;;;;;10.10;100.00;100260.56;5132310;27;20038;-70
2023/04/27 01:01:13;;;;;;;1.60;1.15;;;;;;;9.90;100.00;100208.50;5113682;28;20028;-70
2023/04/27 01:03:40;;;;;;;1.80;1.00;;;;;;;10.04;100.00;100275.88;5132495;27;20031;-71
2023/04/27 01:06:06;;;;;;;1.85;0.93;;;;;;;10.03;100.00;100259.00;5130249;28;20458;-70
2023/04/27 01:08:31;;;;;;;3.63;1.55;;;;;;;10.11;100.00;100285.09;5112760;28;20176;-71
2023/04/27 01:10:57;;;;;;;1.33;1.20;;;;;;;9.48;100.00;100195.00;5132259;28;20394;-70
2023/04/27 01:13:22;;;;;;;5.10;1.40;;;;;;;9.86;100.00;100275.44;5132071;28;20117;-70
2023/04/27 01:15:48;;;;;;;1.90;1.40;;;;;;;9.44;100.00;100223.84;5114016;28;20030;-71
2023/04/27 01:18:13;;;;;;;3.53;1.50;;;;;;;9.78;100.00;100290.00;5113403;28;20076;-70
2023/04/27 01:20:41;;;;;;;2.70;1.70;;;;;;;9.93;100.00;100280.38;5113531;28;20046;-71
2023/04/27 01:23:06;;;;;;;3.58;1.80;;;;;;;9.92;100.00;100304.09;5132052;28;20016;-71
2023/04/27 01:25:32;;;;;;;3.15;2.10;;;;;;;9.99;100.00;100251.47;5112967;28;20042;-71
2023/04/27 01:27:57;;;;;;;2.58;1.73;;;;;;;10.17;100.00;100315.47;5113281;28;20461;-71
2023/04/27 01:30:22;;;;;;;2.58;1.50;;;;;;;9.85;100.00;100297.47;5113433;28;20027;-71
2023/04/27 01:32:48;;;;;;;2.88;2.00;;;;;;;9.80;100.00;100275.56;5112663;28;20563;-70
2023/04/27 01:35:15;;;;;;;2.60;1.48;;;;;;;9.60;100.00;100223.50;5132002;28;20130;-70
2023/04/27 01:37:42;;;;;;;2.00;1.45;;;;;;;9.12;100.00;100219.38;5132197;28;20035;-71
2023/04/27 01:40:07;;;;;;;2.25;1.27;;;;;;;9.63;100.00;100285.25;5131489;28;20057;-70
2023/04/27 01:42:33;;;;;;;2.55;1.33;;;;;;;9.81;100.00;100330.56;5130909;28;20489;-71
2023/04/27 01:44:59;;;;;;;2.10;1.63;;;;;;;9.67;100.00;100282.59;5113354;28;20122;-71
2023/04/27 01:47:25;;;;;;;3.55;1.48;;;;;;;10.10;100.00;100338.50;5113494;28;20070;-71
2023/04/27 01:49:51;;;;;;;2.10;1.50;;;;;;;10.00;100.00;100329.34;5113030;28;20101;-71
2023/04/27 01:52:16;;;;;;;2.92;1.42;;;;;;;9.66;100.00;100282.63;5131213;28;20485;-70
2023/04/27 01:54:42;;;;;;;1.70;1.38;;;;;;;9.90;100.00;100297.38;5131243;28;20529;-70
2023/04/27 01:57:07;;;;;;;1.83;1.45;;;;;;;9.79;100.00;100310.28;5116822;27;20589;-70
2023/04/27 01:59:33;;;;;;;2.83;1.90;;;;;;;9.66;100.00;100306.31;5116965;27;20038;-71
2023/04/27 02:01:58;;;;;;;2.10;1.65;;;;;;;9.41;100.00;100244.19;5116546;27;20027;-70
2023/04/27 02:04:23;;;;;;;2.88;1.50;;;;;;;9.79;100.00;100352.59;5134963;27;20027;-74
2023/04/27 02:06:49;;;;;;;1.73;1.52;;;;;;;9.80;100.00;100316.19;5116407;27;20027;-70
2023/04/27 02:09:15;;;;;;;2.40;1.38;;;;;;;9.80;100.00;100336.50;5134511;27;20716;-70
2023/04/27 02:11:40;;;;;;;2.33;1.20;;;;;;;9.79;100.00;100345.81;5135165;27;20541;-70
2023/04/27 02:14:06;;;;;;;2.33;1.25;;;;;;;10.12;100.00;100370.59;5116420;27;20037;-70
2023/04/27 02:16:31;;;;;;;1.58;1.20;;;;;;;9.99;100.00;100379.28;5116346;27;20073;-70
2023/04/27 02:18:57;;;;;;;1.88;0.95;;;;;;;9.48;100.00;100287.19;5116604;27;20027;-70
2023/04/27 02:21:23;;;;;;;1.08;0.98;;;;;;;9.29;100.00;100249.50;5117118;27;20047;-70
2023/04/27 02:23:48;;;;;;;2.35;1.05;;;;;;;9.96;100.00;100366.66;5116362;27;20060;-70
2023/04/27 02:26:19;;;;;;;1.92;1.05;;;;;;;9.76;100.00;100360.28;5115725;27;20029;-70
2023/04/27 02:28:46;;;;;;;1.55;1.10;;;;;;;9.74;100.00;100355.25;5135115;27;20114;-70
2023/04/27 02:31:12;;;;;;;0.93;0.85;;;;;;;9.61;100.00;100324.16;5133139;27;20134;-70
2023/04/27 02:33:38;;;;;;;1.77;0.95;;;;;;;9.93;100.00;100361.63;5132662;27;20116;-71
2023/04/27 02:36:04;;;;;;;2.10;1.00;;;;;;;9.25;100.00;100275.78;5133453;27;20027;-71
2023/04/27 02:38:29;;;;;;;1.00;0.90;;;;;;;9.86;100.00;100369.41;5134363;27;20030;-71
2023/04/27 02:40:55;;;;;;;1.88;1.13;;;;;;;10.07;100.00;100379.97;5134625;27;20102;-71
2023/04/27 02:43:21;;;;;;;2.35;1.00;;;;;;;10.06;100.00;100385.91;5133125;27;20023;-71
2023/04/27 02:45:46;;;;;;;1.58;0.98;;;;;;;9.89;100.00;100349.88;5133160;27;20237;-70
2023/04/27 02:48:12;;;;;;;1.83;1.00;;;;;;;10.28;100.00;100399.09;5134715;27;20417;-71
2023/04/27 02:50:43;;;;;;;1.88;1.30;;;;;;;9.60;100.00;100352.97;5134532;27;20111;-71
2023/04/27 02:53:10;;;;;;;1.90;0.90;;;;;;;9.68;100.00;100392.59;5133582;27;20485;-72
2023/04/27 02:55:36;;;;;;;0.70;0.70;;;;;;;9.75;100.00;100405.13;5133124;27;20114;-71
2023/04/27 02:58:01;;;;;;;1.27;0.75;;;;;;;9.52;100.00;100333.66;5132773;27;20122;-71
2023/04/27 03:00:27;;;;;;;1.90;0.80;;;;;;;9.91;100.00;100400.63;5133841;27;20412;-70
2023/04/27 03:02:52;;;;;;;1.30;0.90;;;;;;;9.72;100.00;100389.97;5133094;27;20035;-71
2023/04/27 03:05:18;;;;;;;1.33;0.98;;;;;;;9.68;100.00;100401.03;5133005;27;20027;-71
2023/04/27 03:07:43;;;;;;;2.33;1.13;;;;;;;9.77;100.00;100421.19;5131769;27;20071;-71
2023/04/27 03:10:09;;;;;;;1.00;0.90;;;;;;;9.72;100.00;100425.50;5133116;27;20039;-70
2023/04/27 03:12:35;;;;;;;0.95;0.90;;;;;;;9.43;100.00;100375.25;5121072;27;20035;-71
2023/04/27 03:15:00;;;;;;;1.15;0.90;;;;;;;9.84;100.00;100430.38;5112063;28;20100;-71
2023/04/27 03:17:26;;;;;;;1.60;1.10;;;;;;;9.65;100.00;100428.19;5129326;27;20030;-71
2023/04/27 03:19:52;;;;;;;2.20;1.27;;;;;;;9.24;100.00;100385.72;5132477;27;20027;-71
2023/04/27 03:22:17;;;;;;;2.78;1.40;;;;;;;9.25;100.00;100379.78;5125806;27;20095;-72
2023/04/27 03:24:43;;;;;;;1.83;1.40;;;;;;;9.25;100.00;100398.38;5114776;27;20035;-70
2023/04/27 03:27:15;;;;;;;2.47;1.67;;;;;;;9.42;100.00;100410.78;5114702;27;20031;-72
2023/04/27 03:29:41;;;;;;;1.95;1.63;;;;;;;8.99;100.00;100397.09;5114440;27;20544;-70
2023/04/27 03:32:06;;;;;;;3.00;1.88;;;;;;;9.36;100.00;100413.44;5110766;28;20031;-72
2023/04/27 03:34:31;;;;;;;2.50;1.60;;;;;;;11.31;100.00;100514.69;5096982;27;20130;-74
2023/04/27 03:37:05;;;;;;;3.13;1.65;;;;;;;9.37;100.00;100440.47;5115596;27;20023;-72
2023/04/27 03:39:30;;;;;;;1.95;1.60;;;;;;;9.14;100.00;100475.50;5115143;27;20042;-72
2023/04/27 03:41:56;;;;;;;2.97;1.75;;;;;;;8.81;100.00;100430.31;5131510;27;20027;-71
2023/04/27 03:44:21;;;;;;;2.85;1.50;;;;;;;9.30;100.00;100492.16;5115246;27;20034;-71
2023/04/27 03:46:47;;;;;;;3.45;1.83;;;;;;;9.19;100.00;100494.84;5133185;27;20043;-74
2023/04/27 03:49:12;;;;;;;2.20;1.60;;;;;;;9.06;100.00;100475.59;5110519;28;20078;-71
2023/04/27 03:51:41;;;;;;;1.80;1.58;;;;;;;8.58;100.00;100385.84;5112159;28;20067;-70
2023/04/27 03:54:06;;;;;;;2.80;2.00;;;;;;;9.09;100.00;100449.38;5112830;28;20035;-72
2023/04/27 03:56:31;;;;;;;2.10;1.60;;;;;;;9.03;100.00;100444.38;5114822;27;20151;-72
2023/04/27 03:58:58;;;;;;;3.75;1.70;;;;;;;8.54;100.00;100399.41;5123735;27;20066;-75
2023/04/27 04:01:23;;;;;;;3.10;1.98;;;;;;;9.17;100.00;100478.00;5133075;27;20042;-73
2023/04/27 04:03:50;;;;;;;2.50;1.70;;;;;;;8.88;100.00;100449.66;5114562;27;20408;-77
2023/04/27 04:06:15;;;;;;;3.15;2.25;;;;;;;9.08;100.00;100485.72;5115794;27;20493;-77
2023/04/27 04:08:41;;;;;;;4.00;1.77;;;;;;;9.40;100.00;100519.09;5133389;27;20096;-74
2023/04/27 04:11:07;;;;;;;2.65;2.05;;;;;;;9.45;100.00;100517.31;5115162;27;20150;-77
2023/04/27 04:13:32;;;;;;;2.10;1.85;;;;;;;9.29;100.00;100523.50;5133515;27;20035;-74
2023/04/27 04:16:02;;;;;;;3.00;2.10;;;;;;;10.11;100.00;100484.94;5132811;27;20080;-72
2023/04/27 04:18:27;;;;;;;2.60;2.10;;;;;;;9.48;100.00;100522.34;5114449;27;20075;-74
2023/04/27 04:20:53;;;;;;;2.55;2.13;;;;;;;8.77;100.00;100430.34;5124364;27;20685;-75
2023/04/27 04:23:18;;;;;;;3.85;2.15;;;;;;;9.35;100.00;100519.16;5112293;27;20036;-74
2023/04/27 04:25:46;;;;;;;2.40;1.75;;;;;;;9.57;100.00;100539.97;5093714;28;20474;-74
2023/04/27 04:28:12;;;;;;;2.78;2.05;;;;;;;9.49;100.00;100532.47;5094254;28;20020;-74
2023/04/27 04:30:38;;;;;;;2.95;2.05;;;;;;;9.20;100.00;100499.06;5094472;28;20034;-74
2023/04/27 04:33:04;;;;;;;1.98;1.70;;;;;;;9.55;100.00;100527.31;5112485;28;20031;-73
2023/04/27 04:35:31;;;;;;;3.38;2.00;;;;;;;9.17;100.00;100471.19;5094204;28;20028;-74
2023/04/27 04:37:57;;;;;;;3.53;2.53;;;;;;;9.25;100.00;100474.47;5129369;27;20119;-73
2023/04/27 04:40:23;;;;;;;3.60;2.40;;;;;;;9.09;100.00;100487.41;5128218;27;20028;-76
2023/04/27 04:42:48;;;;;;;2.80;2.20;;;;;;;9.60;100.00;100548.41;5114062;27;20030;-76
2023/04/27 04:45:14;;;;;;;3.28;2.47;;;;;;;9.14;100.00;100496.63;5132455;27;20086;-75
2023/04/27 04:47:40;;;;;;;2.72;2.28;;;;;;;9.51;100.00;100543.44;5131933;27;20103;-77
2023/04/27 04:50:08;;;;;;;2.92;2.22;;;;;;;9.37;100.00;100542.81;5114963;27;20023;-77
2023/04/27 04:52:33;;;;;;;3.10;2.55;;;;;;;9.26;100.00;100504.06;5132502;27;20023;-77
2023/04/27 04:54:59;;;;;;;3.70;2.90;;;;;;;9.09;100.00;100505.16;5114515;28;20448;-77
2023/04/27 04:57:24;;;;;;;5.07;3.00;;;;;;;9.12;100.00;100492.44;5132472;27;20035;-78
2023/04/27 04:59:51;;;;;;;7.22;6.10;;;;;;;9.72;100.00;100565.16;5114665;27;20032;-76
2023/04/27 05:02:16;;;;;;;6.43;4.65;;;;;;;9.32;100.00;100548.81;5114396;28;20031;-77
2023/04/27 05:04:42;;;;;;;4.65;3.65;;;;;;;9.84;100.00;100571.72;5132359;27;20475;-77
2023/04/27 05:07:07;;;;;;;4.95;3.28;;;;;;;9.69;100.00;100570.25;5114457;27;20024;-78
2023/04/27 05:09:32;;;;;;;4.03;3.30;;;;;;;9.53;100.00;100516.34;5113715;28;20027;-77
2023/04/27 05:12:00;;;;;;;3.50;2.90;;;;;;;9.52;100.00;100569.66;5114223;28;20052;-77
2023/04/27 05:14:29;;;;;;;4.35;3.05;;;;;;;9.20;100.00;100510.91;5114450;28;20382;-76
2023/04/27 05:16:54;;;;;;;3.63;3.22;;;;;;;9.27;100.00;100512.53;5132694;28;20027;-78
2023/04/27 05:19:20;;;;;;;4.68;3.50;;;;;;;9.71;100.00;100571.06;5114579;28;20405;-78
2023/04/27 05:21:46;;;;;;;5.75;3.70;;;;;;;9.37;100.00;100516.56;5132328;28;20039;-77
2023/04/27 05:24:11;;;;;;;5.85;3.70;;;;;;;9.31;100.00;100522.59;5113973;28;20035;-77
2023/04/27 05:26:38;;;;;;;5.90;4.03;;;;;;;9.74;100.00;100576.13;5132617;28;20031;-77
2023/04/27 05:29:08;;;;;;;5.85;3.80;;;;;;;9.79;100.00;100587.03;5114694;28;20030;-76
2023/04/27 05:31:34;;;;;;;5.03;3.03;;;;;;;9.48;100.00;100553.66;5116719;27;20080;-77
2023/04/27 05:33:59;;;;;;;4.05;3.28;;;;;;;9.95;100.00;100575.78;5118822;27;20027;-77
2023/04/27 05:36:27;;;;;;;4.32;3.20;;;;;;;9.67;100.00;100587.22;5118280;27;20038;-78
2023/04/27 05:38:53;;;;;;;4.70;3.47;;;;;;;9.63;100.00;100548.34;5118502;27;20516;-78
2023/04/27 05:41:18;;;;;;;6.80;4.20;;;;;;;9.49;100.00;100554.47;5136240;27;20027;-77
2023/04/27 05:43:44;;;;;;;6.53;4.13;;;;;;;9.82;100.00;100563.31;5118261;27;20127;-79
2023/04/27 05:46:13;;;;;;;9.02;5.10;;;;;;;9.79;100.00;100518.47;5136355;27;20035;-78
2023/04/27 05:48:38;;;;;;;9.85;5.75;;;;;;;10.21;100.00;100581.31;5136322;27;20088;-77
2023/04/27 05:51:04;;;;;;;5.07;3.95;;;;;;;10.03;100.00;100571.41;5118362;27;20031;-77
2023/04/27 05:53:31;;;;;;;5.75;4.07;;;;;;;10.06;100.00;100591.66;5117554;27;20111;-77
2023/04/27 05:55:58;;;;;;;5.05;3.70;;;;;;;9.75;100.00;100488.06;5136356;27;20035;-78
2023/04/27 05:58:23;;;;;;;5.05;3.45;;;;;;;9.68;100.00;100525.44;5118438;27;20485;-78
2023/04/27 06:00:49;;;;;;;5.15;4.18;;;;;;;10.24;100.00;100588.88;5117582;27;20035;-77
2023/04/27 06:03:17;;;;;;;5.13;3.60;;;;;;;10.15;100.00;100586.50;5136047;27;20409;-77
2023/04/27 06:05:42;;;;;;;7.10;4.28;;;;;;;10.61;100.00;100586.53;5116955;27;20038;-77
2023/04/27 06:08:07;;;;;;;6.10;4.10;;;;;;;10.10;100.00;100527.28;5117629;27;20513;-80
2023/04/27 06:10:33;;;;;;;4.82;3.30;;;;;;;10.55;100.00;100576.47;5135952;27;20026;-78
2023/04/27 06:12:58;;;;;;;3.95;3.13;;;;;;;10.63;100.00;100577.16;5117248;27;20085;-78
2023/04/27 06:15:24;;;;;;;4.15;2.63;;;;;;;9.83;100.00;100478.63;5117159;27;20027;-77
2023/04/27 06:17:49;;;;;;;3.13;2.53;;;;;;;10.67;100.00;100580.50;5118132;27;20053;-76
2023/04/27 06:20:15;;;;;;;5.97;3.20;;;;;;;10.52;100.00;100530.75;5117849;27;20034;-76
2023/04/27 06:22:40;;;;;;;3.97;3.20;;;;;;;10.64;100.00;100570.34;5136158;27;20477;-77
2023/04/27 06:25:06;;;;;;;4.75;3.28;;;;;;;10.66;100.00;100545.75;5117288;27;20080;-76
2023/04/27 06:27:33;;;;;;;5.63;2.88;;;;;;;10.73;100.00;100577.84;5116977;27;20024;-76
2023/04/27 06:29:58;;;;;;;7.45;4.00;;;;;;;10.54;100.00;100516.31;5135683;27;20080;-75
2023/04/27 06:32:24;;;;;;;6.18;4.15;;;;;;;10.62;100.00;100544.16;5117016;27;20041;-76
2023/04/27 06:34:50;;;;;;;5.68;4.28;;;;;;;11.15;100.00;100561.72;5098776;28;20061;-76
2023/04/27 06:37:16;;;;;;;5.00;3.55;;;;;;;10.47;100.00;100466.47;5114768;28;20031;-78
2023/04/27 06:39:43;;;;;;;4.43;3.20;;;;;;;10.79;100.00;100511.59;5115264;28;20043;-78
2023/04/27 06:42:10;;;;;;;4.93;3.25;;;;;;;10.65;100.00;100477.97;5113610;28;20024;-78
2023/04/27 06:44:35;;;;;;;4.40;3.45;;;;;;;11.02;100.00;100491.59;5096304;28;20058;-77
2023/04/27 06:47:01;;;;;;;5.25;3.30;;;;;;;11.03;100.00;100476.28;5131146;27;20724;-78
2023/04/27 06:49:26;;;;;;;4.47;3.15;;;;;;;12.03;100.00;100545.28;5096491;28;20115;-79
2023/04/27 06:51:52;;;;;;;5.57;3.00;;;;;;;11.53;100.00;100479.41;5095943;28;20040;-77
2023/04/27 06:54:17;;;;;;;7.13;3.30;;;;;;;11.75;100.00;100496.69;5113925;28;20483;-77
2023/04/27 06:56:45;;;;;;;7.00;4.00;;;;;;;12.57;100.00;100523.44;5096318;28;20379;-79
2023/04/27 06:59:11;;;;;;;5.35;3.22;;;;;;;12.53;100.00;100478.50;5114836;28;20020;-78
2023/04/27 07:01:37;;;;;;;6.40;4.13;;;;;;;12.73;100.00;100429.47;5114229;28;20100;-79
2023/04/27 07:04:03;;;;;;;7.68;3.80;;;;;;;12.85;100.00;100436.75;5096711;28;20608;-76
2023/04/27 07:06:28;;;;;;;6.00;3.80;;;;;;;12.64;100.00;100468.81;5114109;28;20626;-77
2023/04/27 07:08:54;;;;;;;4.75;3.05;;;;;;;12.79;100.00;100462.47;5102891;28;20142;-77
2023/04/27 07:11:20;;;;;;;4.53;3.05;;;;;;;13.32;100.00;100427.66;5114276;28;20517;-77
2023/04/27 07:13:46;;;;;;;3.38;2.53;;;;;;;12.91;100.00;100439.13;5113763;28;20039;-77
2023/04/27 07:16:11;;;;;;;5.80;2.90;;;;;;;14.02;100.00;100461.94;5147483;27;20072;-78
2023/04/27 07:18:37;;;;;;;6.15;2.60;;;;;;;14.15;100.00;100432.50;5113610;28;20026;-77
2023/04/27 07:21:02;;;;;;;6.20;2.95;;;;;;;13.20;100.00;100319.09;5112438;28;20158;-77
2023/04/27 07:23:28;;;;;;;8.93;3.17;;;;;;;13.46;100.00;100347.16;5112826;28;20031;-77
2023/04/27 07:25:53;;;;;;;4.95;2.70;;;;;;;13.58;100.00;100394.44;5113176;28;20382;-77
2023/04/27 07:28:20;;;;;;;5.15;2.30;;;;;;;13.29;100.00;100336.66;5147352;27;20077;-77
2023/04/27 07:30:46;;;;;;;5.63;2.55;;;;;;;13.57;100.00;100369.75;5112306;28;20028;-76
2023/04/27 07:33:12;;;;;;;3.85;2.33;;;;;;;12.63;100.00;100291.16;5147556;27;20484;-75
2023/04/27 07:35:38;;;;;;;4.50;2.40;;;;;;;12.67;100.00;100331.00;5112895;28;20035;-77
2023/04/27 07:38:04;;;;;;;5.07;2.38;;;;;;;12.81;100.00;100228.50;5112957;28;20057;-77
2023/04/27 07:40:31;;;;;;;5.20;2.80;;;;;;;13.18;100.00;100284.28;5112452;28;20023;-77
2023/04/27 07:42:57;;;;;;;5.25;2.38;;;;;;;13.11;100.00;100281.13;5113219;28;20122;-76
2023/04/27 07:45:30;;;;;;;4.32;2.67;;;;;;;13.56;100.00;100310.19;5112997;28;20126;-78
2023/04/27 07:47:56;;;;;;;4.07;2.45;;;;;;;13.99;100.00;100288.19;5112374;28;20055;-79
2023/04/27 07:50:24;;;;;;;5.85;2.20;;;;;;;14.24;100.00;100289.78;5112423;28;20119;-76
2023/04/27 07:52:49;;;;;;;5.47;2.40;;;;;;;13.49;100.00;100272.97;5113348;28;20490;-77
2023/04/27 07:55:15;;;;;;;7.15;2.90;;;;;;;13.11;100.00;100194.34;5111647;28;20027;-77
2023/04/27 07:57:40;;;;;;;5.25;2.90;;;;;;;13.49;100.00;100238.94;5111796;28;20028;-77
2023/04/27 08:00:08;;;;;;;4.60;2.88;;;;;;;13.60;100.00;100235.13;5111968;28;20449;-76
2023/04/27 08:02:33;;;;;;;6.68;3.20;;;;;;;13.43;100.00;100239.16;5112218;28;20043;-78
2023/04/27 08:04:58;;;;;;;4.93;2.92;;;;;;;13.56;100.00;100263.38;5112244;28;20023;-78
2023/04/27 08:07:24;;;;;;;4.97;3.90;;;;;;;13.16;100.00;100273.28;5114846;27;20047;-77
2023/04/27 08:09:51;;;;;;;5.65;3.30;;;;;;;13.41;100.00;100269.84;5115571;27;20521;-78
2023/04/27 08:12:16;;;;;;;6.95;3.17;;;;;;;13.32;100.00;100277.84;5115459;27;20023;-77
2023/04/27 08:14:41;;;;;;;5.90;2.85;;;;;;;12.87;100.00;100271.69;5115601;27;20127;-77
2023/04/27 08:17:07;;;;;;;17.98;6.60;;;;;;;13.28;100.00;100268.63;5133929;27;20031;-77
2023/04/27 08:19:33;;;;;;;15.15;6.35;;;;;;;13.32;100.00;100264.22;5114931;27;20050;-76
2023/04/27 08:21:58;;;;;;;9.52;3.72;;;;;;;13.19;100.00;100253.63;5115266;27;20080;-77
2023/04/27 08:24:24;;;;;;;16.20;6.80;;;;;;;13.18;100.00;100254.50;5114670;27;20165;-77
2023/04/27 08:26:49;;;;;;;19.50;9.23;;;;;;;13.22;100.00;100238.19;5114925;27;20458;-78
2023/04/27 08:29:15;;;;;;;9.82;4.70;;;;;;;13.02;100.00;100243.09;5114706;27;20027;-78
2023/04/27 08:31:40;;;;;;;5.15;3.20;;;;;;;13.23;100.00;100252.59;5114784;27;20127;-79
2023/04/27 08:34:06;;;;;;;11.20;6.10;;;;;;;12.72;100.00;100254.31;5114250;27;20027;-76
2023/04/27 08:36:31;;;;;;;10.43;4.55;;;;;;;12.97;100.00;100216.91;5114936;27;20121;-76
2023/04/27 08:38:57;;;;;;;5.03;3.80;;;;;;;12.97;100.00;100159.03;5132479;27;20035;-78
2023/04/27 08:41:23;;;;;;;4.18;2.90;;;;;;;13.03;100.00;100260.94;5114824;27;20031;-76
2023/04/27 08:43:50;;;;;;;8.20;4.28;;;;;;;13.14;100.00;100258.03;5115577;27;20027;-78
2023/04/27 08:46:30;;;;;;;7.68;3.40;;;;;;;13.03;100.00;100255.81;5115591;27;20023;-77
2023/04/27 08:48:55;;;;;;;5.95;2.60;;;;;;;13.73;100.00;100250.81;5114868;27;20027;-78
2023/04/27 08:51:23;;;;;;;7.28;2.55;;;;;;;12.51;100.00;100146.19;5115053;27;20038;-77
2023/04/27 08:53:57;;;;;;;7.75;3.75;;;;;;;13.28;100.00;100253.28;5111920;28;20512;-79
2023/04/27 08:56:27;;;;;;;7.45;3.25;;;;;;;12.86;100.00;100207.06;5094607;28;20264;-78
2023/04/27 08:58:53;;;;;;;5.13;3.08;;;;;;;13.58;100.00;100247.13;5094276;28;20027;-78
2023/04/27 09:01:20;;;;;;;7.90;3.60;;;;;;;13.67;100.00;100246.75;5112838;28;20031;-76
2023/04/27 09:03:46;;;;;;;6.45;3.28;;;;;;;13.14;100.00;100176.34;5112522;28;20028;-77
2023/04/27 09:06:12;;;;;;;5.28;2.97;;;;;;;13.50;100.00;100238.88;5093272;28;20059;-76
2023/04/27 09:08:45;;;;;;;6.80;3.65;;;;;;;13.57;100.00;100230.09;5097084;27;20047;-76
2023/04/27 09:11:12;;;;;;;9.55;4.32;;;;;;;13.30;100.00;100231.09;5134391;27;20048;-76
2023/04/27 09:13:39;;;;;;;7.50;4.15;;;;;;;13.59;100.00;100237.69;5152820;27;20030;-75
2023/04/27 09:16:05;;;;;;;6.53;4.03;;;;;;;13.39;100.00;100233.31;5134598;27;20030;-74
2023/04/27 09:18:34;;;;;;;6.50;3.60;;;;;;;12.77;100.00;100179.31;5134719;27;20560;-74
2023/04/27 09:21:00;;;;;;;5.70;3.00;;;;;;;13.17;100.00;100229.88;5134198;27;20026;-75
2023/04/27 09:23:37;;;;;;;5.55;2.95;;;;;;;13.18;100.00;100170.25;5134583;27;20034;-74
2023/04/27 09:26:08;;;;;;;4.60;2.85;;;;;;;13.30;100.00;100190.22;5134338;27;20535;-75
2023/04/27 09:28:36;;;;;;;4.43;2.85;;;;;;;13.35;100.00;100226.63;5134603;27;20492;-74
2023/04/27 09:31:03;;;;;;;8.38;2.90;;;;;;;13.21;100.00;100200.75;5134717;27;20125;-75
2023/04/27 09:33:31;;;;;;;7.32;3.28;;;;;;;13.17;100.00;100114.16;5134363;27;20146;-76
2023/04/27 09:36:03;;;;;;;5.63;3.30;;;;;;;13.91;100.00;100165.78;5134845;27;20035;-74
2023/04/27 09:38:28;;;;;;;6.07;3.47;;;;;;;14.23;100.00;100213.13;5134581;27;20180;-74
2023/04/27 09:40:56;;;;;;;6.88;3.70;;;;;;;14.12;100.00;100177.75;5119200;28;20575;-74
2023/04/27 09:43:22;;;;;;;8.80;4.45;;;;;;;14.58;100.00;100199.78;5131919;28;20035;-75
2023/04/27 09:45:49;;;;;;;6.03;5.00;;;;;;;14.37;100.00;100178.47;5111663;27;20091;-78
2023/04/27 09:48:14;;;;;;;8.00;5.30;;;;;;;15.23;100.00;100202.97;5149049;27;20031;-79
2023/04/27 09:50:43;;;;;;;7.70;5.60;;;;;;;15.69;100.00;100186.41;5112440;28;20031;-77
2023/04/27 09:53:13;;;;;;;7.88;6.20;;;;;;;15.51;100.00;100116.34;5113709;28;20027;-77
2023/04/27 09:55:46;;;;;;;9.20;6.25;;;;;;;14.83;100.00;100151.81;5132002;28;20087;-75
2023/04/27 09:58:33;;;;;;;7.30;6.15;;;;;;;16.19;100.00;100166.97;5132527;28;20106;-76
2023/04/27 10:01:02;;;;;;;8.05;6.57;;;;;;;14.72;100.00;100141.19;5113609;28;20027;-77
2023/04/27 10:03:49;;;;;;;14.82;6.85;;;;;;;14.60;100.00;100139.16;5131291;28;20064;-76
2023/04/27 10:06:33;;;;;;;9.88;6.70;;;;;;;14.40;100.00;100145.09;5114193;28;20084;-75
2023/04/27 10:09:03;;;;;;;8.60;5.97;;;;;;;14.62;100.00;100092.13;5114194;28;20138;-76
2023/04/27 10:11:46;;;;;;;10.82;6.10;;;;;;;14.49;100.00;100157.53;5113776;28;20026;-76
2023/04/27 10:14:17;;;;;;;8.30;5.93;;;;;;;14.62;100.00;100142.47;5113644;28;20027;-75
2023/04/27 10:16:49;;;;;;;13.98;6.07;;;;;;;14.54;100.00;100154.75;5114720;27;20026;-75
2023/04/27 10:19:15;;;;;;;12.00;6.20;;;;;;;14.94;100.00;100159.88;5117551;27;20122;-76
2023/04/27 10:22:06;;;;;;;6.28;5.30;;;;;;;14.37;100.00;100152.06;5117410;27;20062;-76
2023/04/27 10:24:38;;;;;;;8.48;5.70;;;;;;;14.56;100.00;100142.72;5135897;27;20023;-76
2023/04/27 10:27:09;;;;;;;7.10;5.10;;;;;;;14.95;100.00;100135.94;5117317;27;20047;-75
2023/04/27 10:29:45;;;;;;;11.82;5.28;;;;;;;14.77;100.00;100132.44;5117078;27;20057;-75
2023/04/27 10:32:17;;;;;;;7.72;5.72;;;;;;;14.89;100.00;100135.38;5113709;27;20073;-76
2023/04/27 10:34:46;;;;;;;8.35;5.95;;;;;;;15.52;100.00;100147.91;5116838;27;20138;-76
2023/04/27 10:37:12;;;;;;;7.30;5.05;;;;;;;15.49;100.00;100127.53;5116996;27;20049;-75
2023/04/27 10:39:40;;;;;;;8.10;5.60;;;;;;;15.37;100.00;100100.72;5135188;27;20569;-74
2023/04/27 10:42:06;;;;;;;7.40;5.40;;;;;;;15.95;100.00;100136.50;5116332;27;20134;-75
2023/04/27 10:44:34;;;;;;;7.15;5.18;;;;;;;15.20;100.00;100110.06;5135145;27;20027;-76
2023/04/27 10:47:10;;;;;;;8.10;5.75;;;;;;;15.98;100.00;100129.50;5117470;27;20032;-77
2023/04/27 10:49:37;;;;;;;6.90;5.38;;;;;;;15.00;100.00;100102.44;5117115;27;20027;-75
2023/04/27 10:52:03;;;;;;;10.02;5.70;;;;;;;15.63;100.00;100080.81;5116650;27;20035;-76
2023/04/27 10:54:30;;;;;;;10.30;5.88;;;;;;;15.55;100.00;100122.97;5116868;27;20023;-78
2023/04/27 10:57:11;;;;;;;7.50;5.80;;;;;;;14.75;100.00;100013.94;5116834;27;20023;-77
2023/04/27 10:59:48;;;;;;;6.72;5.28;;;;;;;15.55;100.00;100112.72;5116429;27;20118;-76
2023/04/27 11:02:14;;;;;;;7.63;5.40;;;;;;;15.41;100.00;100107.38;5116818;27;20035;-76
2023/04/27 11:04:40;;;;;;;9.57;6.10;;;;;;;16.43;100.00;100111.03;5134789;27;20031;-76
2023/04/27 11:07:07;;;;;;;8.50;5.90;;;;;;;16.00;100.00;100075.56;5116491;27;20047;-76
2023/04/27 11:09:35;;;;;;;9.25;5.18;;;;;;;15.38;100.00;100050.31;5116590;27;20058;-76
2023/04/27 11:12:01;;;;;;;9.30;5.55;;;;;;;15.38;100.00;100083.63;5134774;27;20506;-77
2023/04/27 11:14:28;;;;;;;8.60;5.35;;;;;;;14.68;100.00;100099.56;5115406;27;20118;-77
2023/04/27 11:16:54;;;;;;;8.55;5.85;;;;;;;14.92;100.00;100102.78;5134733;27;20038;-77